createdAt,value
2022-08-30T00:00:21.445Z,21.09
2022-08-30T00:01:25.386Z,21.05
2022-08-30T00:02:27.086Z,21.04
2022-08-30T00:03:31.412Z,21.02
2022-08-30T00:04:33.685Z,21.01
2022-08-30T00:05:39.532Z,20.99
2022-08-30T00:06:41.131Z,20.98
2022-08-30T00:07:43.797Z,20.97
2022-08-30T00:08:46.436Z,20.95
2022-08-30T00:09:49.078Z,20.94
2022-08-30T00:10:51.178Z,20.93
2022-08-30T00:11:53.731Z,20.92
2022-08-30T00:12:55.724Z,20.92
2022-08-30T00:13:58.853Z,20.90
2022-08-30T00:15:00.538Z,20.89
2022-08-30T00:16:04.773Z,20.89
2022-08-30T00:17:06.517Z,20.89
2022-08-30T00:18:10.140Z,20.85
2022-08-30T00:19:11.769Z,20.85
2022-08-30T00:20:17.588Z,20.84
2022-08-30T00:21:20.716Z,20.84
2022-08-30T00:22:23.560Z,20.82
2022-08-30T00:23:25.699Z,20.82
2022-08-30T00:24:28.823Z,20.83
2022-08-30T00:25:31.359Z,20.83
2022-08-30T00:26:33.930Z,20.84
2022-08-30T00:27:35.583Z,20.85
2022-08-30T00:28:38.270Z,20.84
2022-08-30T00:29:39.852Z,20.86
2022-08-30T00:30:42.991Z,20.87
2022-08-30T00:31:44.708Z,20.89
2022-08-30T00:32:48.045Z,20.90
2022-08-30T00:33:50.608Z,20.92
2022-08-30T00:34:54.418Z,20.93
2022-08-30T00:35:57.230Z,20.94
2022-08-30T00:37:00.855Z,20.94
2022-08-30T00:38:03.385Z,20.94
2022-08-30T00:39:06.348Z,20.95
2022-08-30T00:40:12.068Z,20.96
2022-08-30T00:41:13.876Z,20.96
2022-08-30T00:42:17.540Z,20.96
2022-08-30T00:43:23.120Z,20.94
2022-08-30T00:44:26.832Z,20.94
2022-08-30T00:45:31.937Z,20.93
2022-08-30T00:46:34.540Z,20.93
2022-08-30T00:47:36.234Z,20.92
2022-08-30T00:48:41.741Z,20.89
2022-08-30T00:49:47.183Z,20.88
2022-08-30T00:50:54.129Z,20.85
2022-08-30T00:51:56.576Z,20.83
2022-08-30T00:53:05.185Z,20.80
2022-08-30T00:54:07.830Z,20.79
2022-08-30T00:55:13.598Z,20.78
2022-08-30T00:56:16.055Z,20.77
2022-08-30T00:57:19.012Z,20.76
2022-08-30T00:58:27.245Z,20.75
2022-08-30T00:59:30.580Z,20.74
2022-08-30T01:00:32.521Z,20.73
2022-08-30T01:01:35.990Z,20.73
2022-08-30T01:02:39.065Z,20.72
2022-08-30T01:03:43.760Z,20.70
2022-08-30T01:04:46.181Z,20.69
2022-08-30T01:05:50.375Z,20.69
2022-08-30T01:06:52.945Z,20.67
2022-08-30T01:07:55.495Z,20.66
2022-08-30T01:08:58.714Z,20.64
2022-08-30T01:10:03.360Z,20.62
2022-08-30T01:11:05.449Z,20.61
2022-08-30T01:12:09.211Z,20.59
2022-08-30T01:13:13.801Z,20.59
2022-08-30T01:14:17.136Z,20.57
2022-08-30T01:15:18.924Z,20.55
2022-08-30T01:16:25.311Z,20.54
2022-08-30T01:17:29.556Z,20.52
2022-08-30T01:18:32.877Z,20.51
2022-08-30T01:19:48.343Z,20.50
2022-08-30T01:20:57.230Z,20.48
2022-08-30T01:22:06.579Z,20.46
2022-08-30T01:23:13.538Z,20.46
2022-08-30T01:24:16.743Z,20.46
2022-08-30T01:25:24.611Z,20.46
2022-08-30T01:26:28.585Z,20.44
2022-08-30T01:27:33.133Z,20.46
2022-08-30T01:28:35.342Z,20.46
2022-08-30T01:29:38.256Z,20.46
2022-08-30T01:30:40.337Z,20.47
2022-08-30T01:31:42.936Z,20.47
2022-08-30T01:32:47.573Z,20.47
2022-08-30T01:33:50.944Z,20.47
2022-08-30T01:34:52.612Z,20.47
2022-08-30T01:35:57.429Z,20.49
2022-08-30T01:37:02.389Z,20.48
2022-08-30T01:38:05.264Z,20.49
2022-08-30T01:39:10.187Z,20.49
2022-08-30T01:40:15.431Z,20.49
2022-08-30T01:41:19.468Z,20.50
2022-08-30T01:42:22.451Z,20.51
2022-08-30T01:43:24.186Z,20.52
2022-08-30T01:44:26.862Z,20.53
2022-08-30T01:45:31.967Z,20.55
2022-08-30T01:46:37.322Z,20.56
2022-08-30T01:47:40.553Z,20.55
2022-08-30T01:48:42.630Z,20.56
2022-08-30T01:49:55.624Z,20.56
2022-08-30T01:50:57.246Z,20.59
2022-08-30T01:52:01.083Z,20.59
2022-08-30T01:53:05.458Z,20.61
2022-08-30T01:54:09.647Z,20.63
2022-08-30T01:55:11.648Z,20.64
2022-08-30T01:56:14.792Z,20.65
2022-08-30T01:57:19.081Z,20.66
2022-08-30T01:58:22.386Z,20.66
2022-08-30T01:59:24.070Z,20.67
2022-08-30T02:00:26.917Z,20.65
2022-08-30T02:01:29.590Z,20.65
2022-08-30T02:02:35.408Z,20.64
2022-08-30T02:03:37.223Z,20.63
2022-08-30T02:04:39.859Z,20.63
2022-08-30T02:05:41.816Z,20.62
2022-08-30T02:06:45.177Z,20.61
2022-08-30T02:07:46.757Z,20.59
2022-08-30T02:08:51.327Z,20.58
2022-08-30T02:09:54.356Z,20.58
2022-08-30T02:10:58.012Z,20.57
2022-08-30T02:12:00.680Z,20.56
2022-08-30T02:13:02.991Z,20.54
2022-08-30T02:14:06.940Z,20.55
2022-08-30T02:15:09.994Z,20.55
2022-08-30T02:16:15.928Z,20.55
2022-08-30T02:17:19.324Z,20.55
2022-08-30T02:18:21.986Z,20.54
2022-08-30T02:19:23.722Z,20.53
2022-08-30T02:20:26.521Z,20.55
2022-08-30T02:21:28.178Z,20.54
2022-08-30T02:22:30.790Z,20.55
2022-08-30T02:23:32.483Z,20.53
2022-08-30T02:24:35.727Z,20.54
2022-08-30T02:25:39.120Z,20.53
2022-08-30T02:26:42.418Z,20.52
2022-08-30T02:27:44.501Z,20.53
2022-08-30T02:28:49.816Z,20.54
2022-08-30T02:29:53.531Z,20.55
2022-08-30T02:30:56.325Z,20.53
2022-08-30T02:31:58.207Z,20.53
2022-08-30T02:33:01.417Z,20.53
2022-08-30T02:34:04.413Z,20.52
2022-08-30T02:35:07.788Z,20.51
2022-08-30T02:36:09.702Z,20.51
2022-08-30T02:37:12.469Z,20.51
2022-08-30T02:38:14.338Z,20.49
2022-08-30T02:39:17.106Z,20.50
2022-08-30T02:40:19.406Z,20.48
2022-08-30T02:41:24.090Z,20.49
2022-08-30T02:42:25.668Z,20.48
2022-08-30T02:43:28.527Z,20.48
2022-08-30T02:44:30.136Z,20.48
2022-08-30T02:45:32.875Z,20.49
2022-08-30T02:46:35.301Z,20.49
2022-08-30T02:47:38.417Z,20.48
2022-08-30T02:48:40.142Z,20.49
2022-08-30T02:49:42.770Z,20.50
2022-08-30T02:50:47.038Z,20.48
2022-08-30T02:51:49.997Z,20.47
2022-08-30T02:52:52.007Z,20.46
2022-08-30T02:53:56.886Z,20.46
2022-08-30T02:54:59.697Z,20.45
2022-08-30T02:56:02.659Z,20.45
2022-08-30T02:57:06.651Z,20.42
2022-08-30T02:58:10.531Z,20.40
2022-08-30T02:59:12.117Z,20.38
2022-08-30T03:00:17.812Z,20.36
2022-08-30T03:01:19.734Z,20.35
2022-08-30T03:02:23.103Z,20.33
2022-08-30T03:03:25.277Z,20.33
2022-08-30T03:04:28.139Z,20.32
2022-08-30T03:05:31.369Z,20.32
2022-08-30T03:06:33.223Z,20.32
2022-08-30T03:07:35.901Z,20.32
2022-08-30T03:08:37.697Z,20.31
2022-08-30T03:09:40.704Z,20.32
2022-08-30T03:10:42.306Z,20.34
2022-08-30T03:11:45.476Z,20.33
2022-08-30T03:12:48.626Z,20.33
2022-08-30T03:13:51.249Z,20.33
2022-08-30T03:14:53.019Z,20.33
2022-08-30T03:15:55.646Z,20.31
2022-08-30T03:16:57.273Z,20.31
2022-08-30T03:17:59.903Z,20.31
2022-08-30T03:19:01.514Z,20.30
2022-08-30T03:20:05.718Z,20.29
2022-08-30T03:21:11.129Z,20.29
2022-08-30T03:22:14.193Z,20.27
2022-08-30T03:23:21.901Z,20.27
2022-08-30T03:24:24.754Z,20.27
2022-08-30T03:25:27.967Z,20.29
2022-08-30T03:26:30.526Z,20.28
2022-08-30T03:27:32.184Z,20.27
2022-08-30T03:28:36.108Z,20.26
2022-08-30T03:29:39.157Z,20.24
2022-08-30T03:30:41.783Z,20.22
2022-08-30T03:31:53.371Z,20.21
2022-08-30T03:32:56.395Z,20.19
2022-08-30T03:34:00.494Z,20.17
2022-08-30T03:35:03.276Z,20.16
2022-08-30T03:36:05.458Z,20.14
2022-08-30T03:37:08.061Z,20.13
2022-08-30T03:38:09.767Z,20.11
2022-08-30T03:39:13.908Z,20.08
2022-08-30T03:40:18.919Z,20.07
2022-08-30T03:41:21.612Z,20.06
2022-08-30T03:42:24.156Z,20.04
2022-08-30T03:43:27.425Z,20.03
2022-08-30T03:44:32.270Z,20.02
2022-08-30T03:45:34.945Z,20.03
2022-08-30T03:46:37.665Z,20.00
2022-08-30T03:47:41.062Z,20.00
2022-08-30T03:48:43.983Z,19.98
2022-08-30T03:49:46.557Z,19.98
2022-08-30T03:50:49.135Z,19.97
2022-08-30T03:51:52.271Z,19.97
2022-08-30T03:52:54.931Z,19.97
2022-08-30T03:53:56.553Z,19.97
2022-08-30T03:55:00.678Z,19.95
2022-08-30T03:56:02.996Z,19.94
2022-08-30T03:57:06.221Z,19.95
2022-08-30T03:58:07.894Z,19.94
2022-08-30T03:59:11.441Z,19.94
2022-08-30T04:00:16.691Z,19.91
2022-08-30T04:01:19.741Z,19.90
2022-08-30T04:02:22.587Z,19.87
2022-08-30T04:03:26.007Z,19.86
2022-08-30T04:04:28.949Z,19.87
2022-08-30T04:05:30.744Z,19.84
2022-08-30T04:06:33.276Z,19.84
2022-08-30T04:07:37.223Z,19.83
2022-08-30T04:08:40.175Z,19.82
2022-08-30T04:09:42.871Z,19.80
2022-08-30T04:10:45.522Z,19.80
2022-08-30T04:11:47.355Z,19.80
2022-08-30T04:12:50.348Z,19.80
2022-08-30T04:13:53.253Z,19.80
2022-08-30T04:14:56.211Z,19.80
2022-08-30T04:15:59.565Z,19.80
2022-08-30T04:17:02.336Z,19.80
2022-08-30T04:18:04.006Z,19.80
2022-08-30T04:19:06.849Z,19.80
2022-08-30T04:20:10.061Z,19.82
2022-08-30T04:21:15.672Z,19.81
2022-08-30T04:22:17.569Z,19.81
2022-08-30T04:23:20.629Z,19.80
2022-08-30T04:24:22.245Z,19.79
2022-08-30T04:25:24.858Z,19.79
2022-08-30T04:26:27.647Z,19.77
2022-08-30T04:27:32.352Z,19.77
2022-08-30T04:28:35.968Z,19.78
2022-08-30T04:29:37.584Z,19.77
2022-08-30T04:30:41.259Z,19.77
2022-08-30T04:31:44.355Z,19.78
2022-08-30T04:32:47.075Z,19.77
2022-08-30T04:33:49.267Z,19.76
2022-08-30T04:34:56.377Z,19.75
2022-08-30T04:36:03.466Z,19.75
2022-08-30T04:37:07.057Z,19.73
2022-08-30T04:38:13.491Z,19.72
2022-08-30T04:39:16.311Z,19.70
2022-08-30T04:40:18.491Z,19.68
2022-08-30T04:41:24.260Z,19.68
2022-08-30T04:42:26.423Z,19.68
2022-08-30T04:43:29.787Z,19.67
2022-08-30T04:44:31.980Z,19.67
2022-08-30T04:45:34.624Z,19.66
2022-08-30T04:46:36.547Z,19.64
2022-08-30T04:47:49.278Z,19.64
2022-08-30T04:48:50.945Z,19.62
2022-08-30T04:49:53.742Z,19.61
2022-08-30T04:50:55.379Z,19.61
2022-08-30T04:51:58.352Z,19.61
2022-08-30T04:52:59.973Z,19.60
2022-08-30T04:54:02.761Z,19.60
2022-08-30T04:55:05.317Z,19.61
2022-08-30T04:56:09.227Z,19.60
2022-08-30T04:57:10.860Z,19.61
2022-08-30T04:58:13.746Z,19.61
2022-08-30T04:59:15.446Z,19.61
2022-08-30T05:00:20.707Z,19.61
2022-08-30T05:01:25.141Z,19.61
2022-08-30T05:02:28.929Z,19.61
2022-08-30T05:03:31.980Z,19.63
2022-08-30T05:04:34.609Z,19.63
2022-08-30T05:05:42.579Z,19.64
2022-08-30T05:06:45.330Z,19.65
2022-08-30T05:07:47.118Z,19.66
2022-08-30T05:08:49.756Z,19.67
2022-08-30T05:09:51.376Z,19.68
2022-08-30T05:10:53.966Z,19.68
2022-08-30T05:11:55.570Z,19.71
2022-08-30T05:12:58.174Z,19.72
2022-08-30T05:13:59.784Z,19.74
2022-08-30T05:15:02.431Z,19.76
2022-08-30T05:16:06.519Z,19.77
2022-08-30T05:17:09.216Z,19.77
2022-08-30T05:18:14.065Z,19.79
2022-08-30T05:19:18.261Z,19.78
2022-08-30T05:20:20.092Z,19.78
2022-08-30T05:21:25.420Z,19.78
2022-08-30T05:22:27.157Z,19.76
2022-08-30T05:23:29.729Z,19.75
2022-08-30T05:24:32.617Z,19.73
2022-08-30T05:25:39.071Z,19.72
2022-08-30T05:26:41.846Z,19.71
2022-08-30T05:30:00.085Z,19.69
2022-08-30T05:31:01.921Z,19.68
2022-08-30T05:32:04.657Z,19.67
2022-08-30T05:33:06.643Z,19.67
2022-08-30T05:34:09.209Z,19.69
2022-08-30T05:35:13.909Z,19.69
2022-08-30T05:36:18.583Z,19.70
2022-08-30T05:37:20.260Z,19.71
2022-08-30T05:38:22.878Z,19.73
2022-08-30T05:39:24.619Z,19.74
2022-08-30T05:40:27.253Z,19.77
2022-08-30T05:41:31.984Z,19.78
2022-08-30T05:42:34.168Z,19.80
2022-08-30T05:43:37.423Z,19.81
2022-08-30T05:44:40.013Z,19.82
2022-08-30T05:45:46.987Z,19.85
2022-08-30T05:46:49.201Z,19.88
2022-08-30T05:47:51.783Z,19.92
2022-08-30T05:48:53.726Z,19.96
2022-08-30T05:49:56.423Z,20.03
2022-08-30T05:51:05.051Z,20.10
2022-08-30T05:52:07.868Z,20.16
2022-08-30T05:53:09.569Z,20.21
2022-08-30T05:54:13.425Z,20.27
2022-08-30T05:55:15.352Z,20.35
2022-08-30T05:56:20.458Z,20.43
2022-08-30T05:57:22.140Z,20.50
2022-08-30T05:58:25.007Z,20.58
2022-08-30T05:59:26.610Z,20.65
2022-08-30T06:00:30.336Z,20.72
2022-08-30T06:01:35.065Z,20.81
2022-08-30T06:02:37.832Z,20.87
2022-08-30T06:03:40.517Z,20.91
2022-08-30T06:04:42.084Z,20.95
2022-08-30T06:06:49.976Z,21.03
2022-08-30T06:07:52.719Z,21.05
2022-08-30T06:08:54.783Z,21.06
2022-08-30T06:09:57.369Z,21.09
2022-08-30T06:10:59.139Z,21.10
2022-08-30T06:12:01.741Z,21.13
2022-08-30T06:13:04.510Z,21.17
2022-08-30T06:14:06.704Z,21.20
2022-08-30T06:15:10.176Z,21.22
2022-08-30T06:16:13.463Z,21.23
2022-08-30T06:17:17.594Z,21.24
2022-08-30T06:18:19.717Z,21.27
2022-08-30T06:19:31.116Z,21.30
2022-08-30T06:20:32.911Z,21.33
2022-08-30T06:21:38.142Z,21.35
2022-08-30T06:22:42.078Z,21.37
2022-08-30T06:23:44.687Z,21.36
2022-08-30T06:24:57.289Z,21.35
2022-08-30T06:26:03.947Z,21.32
2022-08-30T06:27:06.658Z,21.30
2022-08-30T06:28:08.308Z,21.30
2022-08-30T06:29:12.910Z,21.34
2022-08-30T06:30:15.016Z,21.39
2022-08-30T06:31:23.579Z,21.47
2022-08-30T06:32:26.268Z,21.55
2022-08-30T06:33:27.876Z,21.62
2022-08-30T06:34:30.675Z,21.68
2022-08-30T06:35:38.255Z,21.72
2022-08-30T06:36:49.804Z,21.75
2022-08-30T06:37:52.814Z,21.81
2022-08-30T06:38:57.410Z,21.88
2022-08-30T06:40:01.499Z,21.92
2022-08-30T06:41:06.082Z,21.95
2022-08-30T06:42:08.831Z,21.97
2022-08-30T06:43:10.433Z,21.97
2022-08-30T06:44:13.143Z,21.97
2022-08-30T06:45:16.260Z,21.97
2022-08-30T06:46:20.695Z,21.96
2022-08-30T06:47:23.441Z,21.95
2022-08-30T06:48:25.153Z,21.97
2022-08-30T06:49:27.752Z,22.05
2022-08-30T06:50:29.594Z,22.11
2022-08-30T06:51:36.456Z,22.13
2022-08-30T06:52:38.586Z,22.13
2022-08-30T06:53:42.612Z,22.16
2022-08-30T06:54:45.914Z,22.16
2022-08-30T06:55:55.814Z,22.16
2022-08-30T06:56:59.057Z,22.17
2022-08-30T06:58:01.997Z,22.20
2022-08-30T06:59:09.184Z,22.21
2022-08-30T07:00:15.335Z,22.21
2022-08-30T07:01:20.178Z,22.22
2022-08-30T07:02:22.854Z,22.22
2022-08-30T07:03:27.209Z,22.22
2022-08-30T07:04:29.851Z,22.22
2022-08-30T07:05:32.963Z,22.22
2022-08-30T07:06:36.429Z,22.22
2022-08-30T07:07:38.071Z,22.25
2022-08-30T07:08:44.560Z,22.27
2022-08-30T07:09:48.698Z,22.25
2022-08-30T07:10:55.745Z,22.26
2022-08-30T07:12:02.955Z,22.29
2022-08-30T07:13:04.564Z,22.29
2022-08-30T07:14:08.049Z,22.30
2022-08-30T07:15:10.706Z,22.29
2022-08-30T07:16:15.482Z,22.28
2022-08-30T07:17:35.590Z,22.29
2022-08-30T07:18:54.670Z,22.28
2022-08-30T07:19:57.248Z,22.27
2022-08-30T07:21:05.322Z,22.28
2022-08-30T07:22:07.897Z,22.27
2022-08-30T07:23:09.749Z,22.27
2022-08-30T07:24:14.409Z,22.28
2022-08-30T07:25:17.360Z,22.28
2022-08-30T07:26:25.441Z,22.30
2022-08-30T07:27:27.170Z,22.32
2022-08-30T07:28:29.860Z,22.35
2022-08-30T07:29:32.429Z,22.39
2022-08-30T07:30:36.287Z,22.42
2022-08-30T07:31:39.026Z,22.44
2022-08-30T07:32:40.741Z,22.45
2022-08-30T07:33:43.716Z,22.47
2022-08-30T07:34:46.435Z,22.49
2022-08-30T07:35:48.759Z,22.52
2022-08-30T07:36:51.495Z,22.52
2022-08-30T07:37:53.199Z,22.53
2022-08-30T07:38:55.863Z,22.56
2022-08-30T07:39:58.974Z,22.58
2022-08-30T07:41:01.914Z,22.60
2022-08-30T07:42:04.091Z,22.60
2022-08-30T07:43:06.786Z,22.61
2022-08-30T07:44:10.062Z,22.63
2022-08-30T07:45:13.431Z,22.66
2022-08-30T07:46:17.156Z,22.67
2022-08-30T07:47:19.963Z,22.68
2022-08-30T07:48:21.700Z,22.69
2022-08-30T07:49:24.473Z,22.70
2022-08-30T07:50:26.083Z,22.72
2022-08-30T07:51:29.357Z,22.71
2022-08-30T07:52:31.756Z,22.71
2022-08-30T07:53:34.903Z,22.72
2022-08-30T07:54:38.857Z,22.72
2022-08-30T07:55:42.307Z,22.72
2022-08-30T07:56:45.658Z,22.71
2022-08-30T07:57:48.549Z,22.70
2022-08-30T07:58:52.106Z,22.70
2022-08-30T07:59:53.977Z,22.70
2022-08-30T08:00:59.311Z,22.74
2022-08-30T08:02:02.594Z,22.75
2022-08-30T08:03:07.287Z,22.76
2022-08-30T08:04:10.600Z,22.78
2022-08-30T08:05:17.296Z,22.82
2022-08-30T08:06:23.842Z,22.86
2022-08-30T08:07:25.419Z,22.89
2022-08-30T08:08:28.632Z,22.92
2022-08-30T08:09:30.709Z,22.96
2022-08-30T08:10:34.147Z,23.00
2022-08-30T08:11:40.645Z,23.05
2022-08-30T08:12:42.345Z,23.07
2022-08-30T08:13:52.838Z,23.13
2022-08-30T08:14:55.508Z,23.16
2022-08-30T08:15:58.223Z,23.17
2022-08-30T08:17:00.333Z,23.18
2022-08-30T08:18:02.913Z,23.22
2022-08-30T08:19:08.956Z,23.26
2022-08-30T08:20:11.916Z,23.27
2022-08-30T08:21:14.875Z,23.31
2022-08-30T08:22:21.268Z,23.34
2022-08-30T08:23:24.404Z,23.39
2022-08-30T08:24:26.060Z,23.41
2022-08-30T08:25:29.365Z,23.46
2022-08-30T08:26:34.181Z,23.49
2022-08-30T08:27:38.157Z,23.49
2022-08-30T08:28:40.861Z,23.51
2022-08-30T08:29:42.591Z,23.53
2022-08-30T08:30:48.249Z,23.56
2022-08-30T08:31:50.614Z,23.60
2022-08-30T08:32:53.970Z,23.62
2022-08-30T08:33:56.170Z,23.66
2022-08-30T08:34:58.882Z,23.68
2022-08-30T08:36:02.768Z,23.70
2022-08-30T08:37:05.181Z,23.74
2022-08-30T08:38:07.815Z,23.78
2022-08-30T08:39:09.707Z,23.81
2022-08-30T08:40:16.480Z,23.86
2022-08-30T08:41:36.147Z,23.88
2022-08-30T08:42:52.500Z,23.92
2022-08-30T08:43:54.389Z,23.96
2022-08-30T08:45:03.093Z,24.00
2022-08-30T08:46:15.834Z,24.04
2022-08-30T08:47:25.001Z,24.07
2022-08-30T08:48:51.978Z,24.12
2022-08-30T08:49:59.418Z,24.13
2022-08-30T08:51:21.533Z,24.20
2022-08-30T08:52:47.274Z,24.26
2022-08-30T08:53:58.767Z,24.31
2022-08-30T08:55:06.845Z,24.38
2022-08-30T08:56:15.077Z,24.40
2022-08-30T08:57:19.395Z,24.42
2022-08-30T08:58:28.985Z,24.45
2022-08-30T08:59:32.009Z,24.44
2022-08-30T09:00:33.745Z,24.46
2022-08-30T09:01:38.457Z,24.49
2022-08-30T09:02:43.442Z,24.52
2022-08-30T09:03:47.257Z,24.57
2022-08-30T09:04:52.996Z,24.61
2022-08-30T09:05:57.454Z,24.63
2022-08-30T09:07:03.826Z,24.67
2022-08-30T09:08:10.130Z,24.68
2022-08-30T09:09:13.784Z,24.67
2022-08-30T09:10:20.425Z,24.65
2022-08-30T09:11:32.364Z,24.61
2022-08-30T09:12:34.322Z,24.58
2022-08-30T09:13:38.319Z,24.55
2022-08-30T09:14:46.069Z,24.54
2022-08-30T09:15:52.437Z,24.52
2022-08-30T09:17:03.307Z,24.50
2022-08-30T09:18:11.398Z,24.52
2022-08-30T09:19:34.555Z,24.50
2022-08-30T09:20:41.053Z,24.48
2022-08-30T09:21:42.747Z,24.46
2022-08-30T09:22:46.746Z,24.44
2022-08-30T09:23:50.712Z,24.40
2022-08-30T09:24:56.743Z,24.38
2022-08-30T09:36:21.953Z,24.33
2022-08-30T09:37:39.002Z,24.31
2022-08-30T09:38:40.904Z,24.31
2022-08-30T09:39:45.701Z,24.34
2022-08-30T09:40:50.510Z,24.36
2022-08-30T09:41:53.216Z,24.38
2022-08-30T09:43:09.880Z,24.38
2022-08-30T09:44:19.012Z,24.38
2022-08-30T09:45:31.745Z,24.38
2022-08-30T09:46:33.571Z,24.38
2022-08-30T09:47:36.544Z,24.40
2022-08-30T09:48:44.027Z,24.40
2022-08-30T09:49:46.208Z,24.40
2022-08-30T09:50:55.946Z,24.42
2022-08-30T09:52:18.643Z,24.44
2022-08-30T09:53:25.342Z,24.44
2022-08-30T09:54:36.743Z,24.47
2022-08-30T09:55:55.508Z,24.49
2022-08-30T09:57:12.614Z,24.54
2022-08-30T09:58:23.909Z,24.58
2022-08-30T09:59:41.173Z,24.60
2022-08-30T10:00:53.803Z,24.62
2022-08-30T10:02:05.363Z,24.65
2022-08-30T10:03:40.124Z,24.67
2022-08-30T10:04:50.093Z,24.69
2022-08-30T10:05:59.763Z,24.71
2022-08-30T10:07:09.062Z,24.75
2022-08-30T10:08:19.735Z,24.73
2022-08-30T10:09:32.626Z,24.75
2022-08-30T10:10:45.263Z,24.78
2022-08-30T10:11:54.652Z,24.80
2022-08-30T10:13:04.934Z,24.85
2022-08-30T10:14:43.570Z,24.88
2022-08-30T10:15:51.094Z,24.88
2022-08-30T10:17:01.858Z,24.94
2022-08-30T10:18:13.665Z,24.98
2022-08-30T10:19:30.957Z,25.02
2022-08-30T10:20:39.741Z,25.08
2022-08-30T10:21:47.307Z,25.09
2022-08-30T10:22:55.836Z,25.12
2022-08-30T10:24:05.754Z,25.15
2022-08-30T10:25:12.362Z,25.19
2022-08-30T10:26:26.598Z,25.21
2022-08-30T10:27:39.618Z,25.24
2022-08-30T10:28:46.835Z,25.24
2022-08-30T10:29:54.594Z,25.26
2022-08-30T10:30:59.536Z,25.27
2022-08-30T10:32:07.343Z,25.30
2022-08-30T10:33:16.215Z,25.35
2022-08-30T10:34:24.747Z,25.36
2022-08-30T10:35:38.315Z,25.38
2022-08-30T10:36:45.479Z,25.40
2022-08-30T10:37:54.647Z,25.42
2022-08-30T10:38:59.824Z,25.45
2022-08-30T10:40:27.472Z,25.47
2022-08-30T10:41:36.424Z,25.42
2022-08-30T10:42:40.239Z,25.42
2022-08-30T10:43:51.014Z,25.42
2022-08-30T10:44:59.843Z,25.42
2022-08-30T10:46:05.647Z,25.42
2022-08-30T10:47:23.189Z,25.42
2022-08-30T10:48:31.776Z,25.38
2022-08-30T10:49:40.526Z,25.40
2022-08-30T10:50:47.056Z,25.41
2022-08-30T10:51:59.098Z,25.42
2022-08-30T10:53:10.543Z,25.48
2022-08-30T10:54:19.393Z,25.50
2022-08-30T10:55:26.596Z,25.55
2022-08-30T10:56:29.574Z,25.61
2022-08-30T10:57:32.358Z,25.66
2022-08-30T10:58:37.968Z,25.72
2022-08-30T10:59:47.470Z,25.76
2022-08-30T11:01:06.525Z,25.78
2022-08-30T11:02:36.362Z,25.82
2022-08-30T11:04:14.426Z,25.82
2022-08-30T11:05:32.194Z,25.83
2022-08-30T11:06:39.486Z,25.85
2022-08-30T11:07:52.101Z,25.87
2022-08-30T11:09:28.253Z,25.83
2022-08-30T11:10:42.848Z,25.84
2022-08-30T11:12:13.234Z,25.82
2022-08-30T11:13:19.331Z,25.79
2022-08-30T11:15:58.599Z,25.69
2022-08-30T11:17:02.600Z,25.66
2022-08-30T11:18:13.584Z,25.67
2022-08-30T11:19:24.326Z,25.66
2022-08-30T11:20:36.732Z,25.66
2022-08-30T11:21:40.775Z,25.66
2022-08-30T11:23:21.330Z,25.66
2022-08-30T11:24:27.087Z,25.65
2022-08-30T11:25:57.505Z,25.64
2022-08-30T11:27:03.051Z,25.64
2022-08-30T11:28:06.271Z,25.65
2022-08-30T11:29:09.149Z,25.67
2022-08-30T11:30:52.460Z,25.65
2022-08-30T11:31:55.440Z,25.66
2022-08-30T11:33:02.099Z,25.70
2022-08-30T11:34:12.715Z,25.70
2022-08-30T11:35:37.133Z,25.69
2022-08-30T11:37:09.661Z,25.66
2022-08-30T11:38:18.389Z,25.66
2022-08-30T11:41:10.485Z,25.66
2022-08-30T11:42:24.769Z,25.69
2022-08-30T11:43:51.011Z,25.72
2022-08-30T11:45:36.865Z,25.76
2022-08-30T11:46:42.394Z,25.82
2022-08-30T11:47:50.691Z,25.86
2022-08-30T11:48:55.956Z,25.92
2022-08-30T11:50:09.680Z,25.99
2022-08-30T11:51:50.887Z,26.02
2022-08-30T11:53:21.316Z,26.05
2022-08-30T11:54:34.064Z,26.08
2022-08-30T11:55:46.978Z,26.11
2022-08-30T11:56:57.716Z,26.14
2022-08-30T11:58:14.745Z,26.15
2022-08-30T11:59:28.224Z,26.16
2022-08-30T12:00:35.096Z,26.16
2022-08-30T12:01:51.619Z,26.18
2022-08-30T12:02:59.503Z,26.20
2022-08-30T12:04:06.678Z,26.24
2022-08-30T12:05:09.509Z,26.29
2022-08-30T12:06:12.384Z,26.34
2022-08-30T12:07:51.645Z,26.33
2022-08-30T12:08:57.871Z,26.34
2022-08-30T12:10:08.080Z,26.40
2022-08-30T12:11:59.731Z,26.41
2022-08-30T12:13:02.852Z,26.41
2022-08-30T12:14:09.107Z,26.46
2022-08-30T12:15:29.238Z,26.48
2022-08-30T12:16:58.933Z,26.51
2022-08-30T12:18:21.496Z,26.49
2022-08-30T12:19:24.997Z,26.50
2022-08-30T12:20:40.866Z,26.52
2022-08-30T12:21:45.277Z,26.56
2022-08-30T12:22:47.127Z,26.59
2022-08-30T12:23:55.219Z,26.63
2022-08-30T12:24:57.778Z,26.64
2022-08-30T12:26:20.821Z,26.61
2022-08-30T12:27:25.286Z,26.61
2022-08-30T12:28:27.820Z,26.61
2022-08-30T12:29:31.451Z,26.62
2022-08-30T12:30:38.479Z,26.61
2022-08-30T12:31:44.119Z,26.60
2022-08-30T12:32:47.716Z,26.59
2022-08-30T12:34:00.792Z,26.58
2022-08-30T12:35:05.596Z,26.57
2022-08-30T12:36:12.345Z,26.56
2022-08-30T12:37:24.167Z,26.54
2022-08-30T12:38:27.782Z,26.52
2022-08-30T12:39:33.056Z,26.52
2022-08-30T12:40:35.092Z,26.50
2022-08-30T12:41:43.479Z,26.49
2022-08-30T12:42:51.856Z,26.49
2022-08-30T12:43:55.837Z,26.48
2022-08-30T12:45:00.526Z,26.49
2022-08-30T12:46:07.675Z,26.53
2022-08-30T12:47:12.689Z,26.56
2022-08-30T12:48:20.249Z,26.57
2022-08-30T12:49:28.960Z,26.60
2022-08-30T12:50:35.453Z,26.63
2022-08-30T12:51:42.196Z,26.66
2022-08-30T12:52:47.718Z,26.69
2022-08-30T12:53:51.456Z,26.71
2022-08-30T12:54:56.770Z,26.73
2022-08-30T12:56:00.767Z,26.74
2022-08-30T12:57:25.604Z,26.74
2022-08-30T12:58:43.410Z,26.73
2022-08-30T12:59:58.537Z,26.73
2022-08-30T13:01:20.911Z,26.71
2022-08-30T13:02:25.442Z,26.70
2022-08-30T13:03:33.918Z,26.70
2022-08-30T13:04:37.362Z,26.68
2022-08-30T13:05:48.064Z,26.65
2022-08-30T13:06:52.329Z,26.66
2022-08-30T13:08:09.791Z,26.67
2022-08-30T13:09:26.847Z,26.69
2022-08-30T13:10:29.495Z,26.71
2022-08-30T13:11:31.235Z,26.72
2022-08-30T13:12:35.859Z,26.75
2022-08-30T13:13:40.885Z,26.79
2022-08-30T13:14:45.550Z,26.81
2022-08-30T13:15:49.120Z,26.85
2022-08-30T13:16:51.821Z,26.84
2022-08-30T13:18:14.136Z,26.84
2022-08-30T13:19:31.231Z,26.81
2022-08-30T13:20:35.264Z,26.81
2022-08-30T13:21:51.040Z,26.79
2022-08-30T13:23:06.030Z,26.78
2022-08-30T13:24:08.768Z,26.77
2022-08-30T13:25:11.571Z,26.78
2022-08-30T13:26:14.524Z,26.79
2022-08-30T13:27:27.146Z,26.80
2022-08-30T13:28:29.491Z,26.82
2022-08-30T13:29:32.127Z,26.82
2022-08-30T13:30:35.290Z,26.87
2022-08-30T13:31:37.002Z,26.87
2022-08-30T13:32:39.934Z,26.89
2022-08-30T13:33:41.602Z,26.89
2022-08-30T13:34:45.418Z,26.92
2022-08-30T13:35:49.418Z,26.92
2022-08-30T13:36:55.816Z,26.94
2022-08-30T13:38:00.704Z,26.94
2022-08-30T13:39:04.323Z,26.95
2022-08-30T13:40:07.973Z,26.95
2022-08-30T13:41:11.008Z,26.95
2022-08-30T13:44:09.369Z,26.96
2022-08-30T13:44:59.110Z,26.98
2022-08-30T13:46:01.044Z,27.01
2022-08-30T13:48:27.210Z,27.07
2022-08-30T13:49:46.363Z,27.09
2022-08-30T13:50:50.328Z,27.10
2022-08-30T13:52:18.592Z,27.09
2022-08-30T13:53:51.218Z,27.06
2022-08-30T13:54:39.048Z,27.04
2022-08-30T13:55:43.114Z,27.06
2022-08-30T13:56:44.854Z,27.09
2022-08-30T13:57:55.549Z,27.11
2022-08-30T13:58:57.929Z,27.13
2022-08-30T14:00:00.493Z,27.16
2022-08-30T14:01:03.157Z,27.19
2022-08-30T14:02:08.526Z,27.22
2022-08-30T14:03:11.445Z,27.20
2022-08-30T14:04:13.542Z,27.21
2022-08-30T14:05:46.836Z,27.20
2022-08-30T14:08:05.145Z,27.14
2022-08-30T14:09:10.509Z,27.15
2022-08-30T14:11:37.334Z,27.08
2022-08-30T14:12:58.880Z,27.06
2022-08-30T14:14:28.549Z,27.00
2022-08-30T14:15:24.609Z,26.96
2022-08-30T14:16:27.734Z,26.95
2022-08-30T14:17:33.002Z,26.93
2022-08-30T14:18:36.034Z,26.94
2022-08-30T14:19:39.986Z,26.92
2022-08-30T14:20:42.008Z,26.93
2022-08-30T14:21:49.200Z,26.90
2022-08-30T14:22:51.613Z,26.88
2022-08-30T14:23:55.796Z,26.88
2022-08-30T14:24:57.511Z,26.89
2022-08-30T14:26:02.808Z,26.90
2022-08-30T14:27:05.468Z,26.90
2022-08-30T14:28:07.183Z,26.90
2022-08-30T14:29:11.943Z,26.90
2022-08-30T14:30:16.722Z,26.87
2022-08-30T14:31:21.769Z,26.86